Terminal Aerodrome Forecast
Issued by NWS

Home | Current Version | Previous Version | Text Only | Print | Product List | Glossary On
Versions: 1 2 3 4 5 6 7 8 9 10 11 12
585
FTUS42 TJSJ 102320
TAFJBQ
TAF
TJBQ 102320Z 1100/1124 10005KT P6SM FEW050
     FM110800 12004KT P6SM SCT025 SCT045
     FM111430 06013G20KT P6SM FEW040
     FM111600 07012KT P6SM SCT030
      AMD NOT SKED 1102/1111=

USA.gov is the U.S. government's official web portal to all federal, state and local government web resources and services.